Terminal Aerodrome Forecast
Issued by NWS Wichita, KS

Home | Current Version | Previous Version | Graphics & Text | Print | Product List | Glossary On
Versions: 1 2 3 4 5 6 7 8 9 10 11 12 13 14 15 16 17 18
000
FTUS43 KICT 041343 AAB
TAFICT
TAF AMD
KICT 041343Z 0414/0512 VRB04KT 5SM BR SCT005 SCT025
      TEMPO 0414/0416 3/4SM BR BKN002
     FM041600 32008KT P6SM FEW017
     FM041800 31006KT P6SM SKC=

USA.gov is the U.S. government's official web portal to all federal, state and local government web resources and services.